VKG380 EFHK-LCLK
Flight info
| Callsign | VKG380 |
|---|---|
| Flight time | 3h 53m |
| Altitude | 34000 |
| Route | KOIVU Y123 LARTI DCT LUTAL DCT BERIL/N0445F330 DCT BOKSU/N0447F340 DCT TOXAR DCT ROBTU/N0453F350 DCT KENIN DCT ARGES DCT RIXEN UG1 IST UT35 AYT UA16 TOMBI M855 DASNI M601 BONEK |
| Aircraft | A321/M-SDE3FGHIRWY/LB1 |
Departure
| Time | 2026-04-22 07:01 |
|---|---|
| Airport | Helsinki Vantaa Airport (EFHK) |
Arrival
| Time | 2026-04-22 10:55 |
|---|---|
| Airport | Larnaca International Airport (LCLK) |
| Time | Latitude | Longitude | Altitude | Speed | Heading |
|---|---|---|---|---|---|
| 2026-04-22 06:36 | 60.31456 | 24.96158 | 162 ft | 0 kts | 33° |
| 2026-04-22 06:37 | 60.31456 | 24.96157 | 162 ft | 0 kts | 33° |
| 2026-04-22 06:50 | 60.31440 | 24.96136 | 162 ft | 4 kts | 30° |
| 2026-04-22 06:50 | 60.31417 | 24.96111 | 162 ft | 3 kts | 25° |
| 2026-04-22 06:50 | 60.31399 | 24.96096 | 162 ft | 2 kts | 11° |
| 2026-04-22 06:50 | 60.31387 | 24.96092 | 162 ft | 2 kts | 354° |
| 2026-04-22 06:51 | 60.31375 | 24.96096 | 162 ft | 2 kts | 333° |
| 2026-04-22 06:51 | 60.31365 | 24.96108 | 162 ft | 2 kts | 320° |
| 2026-04-22 06:51 | 60.31356 | 24.96123 | 162 ft | 2 kts | 315° |
| 2026-04-22 06:51 | 60.31349 | 24.96139 | 162 ft | 2 kts | 313° |
| 2026-04-22 06:52 | 60.31345 | 24.96146 | 162 ft | 0 kts | 313° |
| 2026-04-22 06:54 | 60.31350 | 24.96137 | 161 ft | 4 kts | 313° |
| 2026-04-22 06:54 | 60.31362 | 24.96052 | 161 ft | 6 kts | 261° |
| 2026-04-22 06:54 | 60.31339 | 24.95983 | 161 ft | 6 kts | 229° |
| 2026-04-22 06:54 | 60.31296 | 24.95888 | 161 ft | 14 kts | 227° |
| 2026-04-22 06:55 | 60.31224 | 24.95731 | 161 ft | 15 kts | 227° |
| 2026-04-22 06:55 | 60.31164 | 24.95573 | 161 ft | 13 kts | 257° |
| 2026-04-22 06:55 | 60.31210 | 24.95433 | 161 ft | 12 kts | 318° |
| 2026-04-22 06:55 | 60.31271 | 24.95320 | 161 ft | 12 kts | 317° |
| 2026-04-22 06:56 | 60.31334 | 24.95204 | 161 ft | 12 kts | 318° |
| 2026-04-22 06:56 | 60.31393 | 24.95093 | 161 ft | 11 kts | 313° |
| 2026-04-22 06:56 | 60.31443 | 24.94981 | 161 ft | 10 kts | 315° |
| 2026-04-22 06:56 | 60.31496 | 24.95002 | 161 ft | 8 kts | 45° |
| 2026-04-22 06:57 | 60.31561 | 24.95149 | 161 ft | 20 kts | 48° |
| 2026-04-22 06:57 | 60.31657 | 24.95364 | 161 ft | 21 kts | 48° |
| 2026-04-22 06:57 | 60.31758 | 24.95584 | 161 ft | 22 kts | 47° |
| 2026-04-22 06:57 | 60.31857 | 24.95801 | 161 ft | 20 kts | 48° |
| 2026-04-22 06:58 | 60.31948 | 24.96003 | 161 ft | 19 kts | 47° |
| 2026-04-22 06:58 | 60.32032 | 24.96189 | 161 ft | 17 kts | 47° |
| 2026-04-22 06:58 | 60.32110 | 24.96362 | 161 ft | 16 kts | 48° |
| 2026-04-22 06:58 | 60.32182 | 24.96522 | 161 ft | 15 kts | 48° |
| 2026-04-22 06:59 | 60.32249 | 24.96670 | 161 ft | 14 kts | 48° |
| 2026-04-22 06:59 | 60.32310 | 24.96799 | 161 ft | 11 kts | 36° |
| 2026-04-22 06:59 | 60.32378 | 24.96775 | 161 ft | 10 kts | 330° |
| 2026-04-22 06:59 | 60.32444 | 24.96706 | 163 ft | 13 kts | 333° |
| 2026-04-22 07:00 | 60.32478 | 24.96619 | 162 ft | 7 kts | 259° |
| 2026-04-22 07:00 | 60.32464 | 24.96578 | 162 ft | 0 kts | 227° |
| 2026-04-22 07:00 | 60.32443 | 24.96532 | 161 ft | 28 kts | 227° |
| 2026-04-22 07:00 | 60.32137 | 24.95854 | 164 ft | 100 kts | 227° |
| 2026-04-22 07:01 | 60.31533 | 24.94525 | 165 ft | 154 kts | 227° |
| 2026-04-22 07:01 | 60.30786 | 24.92878 | 694 ft | 156 kts | 233° |
| 2026-04-22 07:01 | 60.29918 | 24.91482 | 1313 ft | 166 kts | 215° |
| 2026-04-22 07:01 | 60.28866 | 24.90392 | 1877 ft | 172 kts | 216° |
| 2026-04-22 07:02 | 60.27777 | 24.89198 | 2063 ft | 187 kts | 217° |
| 2026-04-22 07:02 | 60.26586 | 24.87839 | 2202 ft | 204 kts | 217° |
| 2026-04-22 07:02 | 60.25307 | 24.86400 | 2405 ft | 219 kts | 217° |
| 2026-04-22 07:02 | 60.23914 | 24.84847 | 2598 ft | 240 kts | 215° |
| 2026-04-22 07:03 | 60.22269 | 24.83629 | 3057 ft | 258 kts | 201° |
| 2026-04-22 07:03 | 60.20533 | 24.82777 | 3841 ft | 261 kts | 198° |
| 2026-04-22 07:03 | 60.18716 | 24.81995 | 4518 ft | 266 kts | 197° |
| 2026-04-22 07:03 | 60.16916 | 24.81236 | 5216 ft | 269 kts | 196° |
| 2026-04-22 07:04 | 60.15079 | 24.80446 | 5913 ft | 271 kts | 196° |
| 2026-04-22 07:04 | 60.13197 | 24.79615 | 6349 ft | 286 kts | 196° |
| 2026-04-22 07:04 | 60.11222 | 24.78721 | 6867 ft | 294 kts | 197° |
| 2026-04-22 07:04 | 60.09215 | 24.77806 | 7532 ft | 297 kts | 197° |
| 2026-04-22 07:05 | 60.07194 | 24.76884 | 8221 ft | 299 kts | 197° |
| 2026-04-22 07:05 | 60.05160 | 24.75957 | 8907 ft | 301 kts | 197° |
| 2026-04-22 07:05 | 60.03111 | 24.75017 | 9596 ft | 304 kts | 197° |
| 2026-04-22 07:05 | 60.01041 | 24.74066 | 10187 ft | 309 kts | 197° |
| 2026-04-22 07:06 | 59.98874 | 24.73063 | 10328 ft | 330 kts | 197° |
| 2026-04-22 07:06 | 59.96564 | 24.71994 | 10462 ft | 350 kts | 197° |
| 2026-04-22 07:06 | 59.94123 | 24.70868 | 10573 ft | 370 kts | 196° |
| 2026-04-22 07:06 | 59.91569 | 24.69704 | 10896 ft | 381 kts | 196° |
| 2026-04-22 07:07 | 59.88968 | 24.68532 | 11434 ft | 385 kts | 196° |
| 2026-04-22 07:07 | 59.86337 | 24.67354 | 11976 ft | 390 kts | 196° |
| 2026-04-22 07:07 | 59.83708 | 24.66177 | 12532 ft | 394 kts | 196° |
| 2026-04-22 07:07 | 59.81026 | 24.64947 | 13086 ft | 398 kts | 196° |
| 2026-04-22 07:08 | 59.78318 | 24.63672 | 13634 ft | 402 kts | 197° |
| 2026-04-22 07:08 | 59.75587 | 24.62371 | 14130 ft | 406 kts | 197° |
| 2026-04-22 07:08 | 59.72827 | 24.61053 | 14620 ft | 409 kts | 197° |
| 2026-04-22 07:08 | 59.70050 | 24.59731 | 15103 ft | 413 kts | 196° |
| 2026-04-22 07:09 | 59.67247 | 24.58403 | 15581 ft | 416 kts | 196° |
| 2026-04-22 07:09 | 59.64412 | 24.57128 | 16058 ft | 420 kts | 194° |
| 2026-04-22 07:09 | 59.61535 | 24.55951 | 16530 ft | 423 kts | 194° |
| 2026-04-22 07:09 | 59.58634 | 24.54837 | 16996 ft | 426 kts | 193° |
| 2026-04-22 07:10 | 59.55707 | 24.53742 | 17464 ft | 429 kts | 193° |
| 2026-04-22 07:10 | 59.52763 | 24.52638 | 17926 ft | 432 kts | 193° |
| 2026-04-22 07:10 | 59.49802 | 24.51511 | 18365 ft | 435 kts | 193° |
| 2026-04-22 07:10 | 59.46821 | 24.50358 | 18764 ft | 438 kts | 193° |
| 2026-04-22 07:11 | 59.43826 | 24.49182 | 19178 ft | 440 kts | 193° |
| 2026-04-22 07:11 | 59.40818 | 24.47992 | 19588 ft | 442 kts | 192° |
| 2026-04-22 07:11 | 59.37796 | 24.46800 | 19988 ft | 444 kts | 192° |
| 2026-04-22 07:11 | 59.34760 | 24.45608 | 20381 ft | 446 kts | 192° |
| 2026-04-22 07:12 | 59.31706 | 24.44416 | 20774 ft | 449 kts | 191° |
| 2026-04-22 07:12 | 59.28634 | 24.43223 | 21169 ft | 451 kts | 191° |
| 2026-04-22 07:12 | 59.25545 | 24.42025 | 21563 ft | 454 kts | 191° |
| 2026-04-22 07:12 | 59.22435 | 24.40822 | 21962 ft | 456 kts | 191° |
| 2026-04-22 07:13 | 59.19313 | 24.39616 | 22348 ft | 459 kts | 191° |
| 2026-04-22 07:13 | 59.16174 | 24.38407 | 22730 ft | 461 kts | 190° |
| 2026-04-22 07:13 | 59.13017 | 24.37192 | 23101 ft | 464 kts | 190° |
| 2026-04-22 07:13 | 59.09843 | 24.35968 | 23470 ft | 466 kts | 190° |
| 2026-04-22 07:14 | 59.06653 | 24.34744 | 23781 ft | 469 kts | 190° |
| 2026-04-22 07:14 | 59.03486 | 24.33533 | 24065 ft | 471 kts | 190° |
| 2026-04-22 07:14 | 59.00261 | 24.32300 | 24360 ft | 474 kts | 189° |
| 2026-04-22 07:14 | 58.97017 | 24.31058 | 24647 ft | 476 kts | 189° |
| 2026-04-22 07:15 | 58.93760 | 24.29808 | 24944 ft | 479 kts | 189° |
| 2026-04-22 07:15 | 58.90477 | 24.28555 | 25228 ft | 481 kts | 189° |
| 2026-04-22 07:15 | 58.87181 | 24.27302 | 25497 ft | 483 kts | 189° |
| 2026-04-22 07:15 | 58.83869 | 24.26044 | 25786 ft | 486 kts | 189° |
| 2026-04-22 07:16 | 58.80545 | 24.24787 | 26057 ft | 488 kts | 189° |
| 2026-04-22 07:16 | 58.77204 | 24.23530 | 26321 ft | 490 kts | 189° |
| 2026-04-22 07:16 | 58.73847 | 24.22272 | 26587 ft | 493 kts | 189° |
| 2026-04-22 07:16 | 58.70470 | 24.21008 | 26857 ft | 495 kts | 189° |
| 2026-04-22 07:17 | 58.67130 | 24.19759 | 27118 ft | 497 kts | 189° |
| 2026-04-22 07:17 | 58.63717 | 24.18480 | 27384 ft | 499 kts | 189° |
| 2026-04-22 07:17 | 58.60301 | 24.17202 | 27654 ft | 501 kts | 189° |
| 2026-04-22 07:17 | 58.56866 | 24.15920 | 27928 ft | 503 kts | 189° |
| 2026-04-22 07:18 | 58.53434 | 24.14640 | 28299 ft | 502 kts | 189° |
| 2026-04-22 07:18 | 58.49995 | 24.13363 | 28671 ft | 502 kts | 189° |
| 2026-04-22 07:18 | 58.46566 | 24.12091 | 29019 ft | 502 kts | 189° |
| 2026-04-22 07:18 | 58.43141 | 24.10824 | 29369 ft | 502 kts | 188° |
| 2026-04-22 07:19 | 58.39710 | 24.09555 | 29719 ft | 501 kts | 188° |
| 2026-04-22 07:19 | 58.36289 | 24.08293 | 30058 ft | 501 kts | 188° |
| 2026-04-22 07:19 | 58.32911 | 24.07051 | 30346 ft | 501 kts | 188° |
| 2026-04-22 07:19 | 58.29484 | 24.05798 | 30647 ft | 500 kts | 188° |
| 2026-04-22 07:20 | 58.26063 | 24.04550 | 30974 ft | 499 kts | 188° |
| 2026-04-22 07:20 | 58.22647 | 24.03302 | 31291 ft | 498 kts | 188° |
| 2026-04-22 07:20 | 58.19243 | 24.02060 | 31612 ft | 498 kts | 188° |
| 2026-04-22 07:20 | 58.15844 | 24.00816 | 31925 ft | 497 kts | 188° |
| 2026-04-22 07:21 | 58.13595 | 23.99994 | 32132 ft | 496 kts | 188° |
| 2026-04-22 07:21 | 58.10205 | 23.98758 | 32448 ft | 496 kts | 188° |
| 2026-04-22 07:21 | 58.06820 | 23.97531 | 32755 ft | 495 kts | 188° |
| 2026-04-22 07:21 | 58.03436 | 23.96313 | 33054 ft | 494 kts | 188° |
| 2026-04-22 07:22 | 58.00057 | 23.95101 | 33353 ft | 494 kts | 188° |
| 2026-04-22 07:22 | 57.96682 | 23.93894 | 33648 ft | 493 kts | 188° |
| 2026-04-22 07:22 | 57.93310 | 23.92684 | 33932 ft | 493 kts | 188° |
| 2026-04-22 07:22 | 57.89945 | 23.91471 | 34035 ft | 492 kts | 188° |
| 2026-04-22 07:23 | 57.86583 | 23.90283 | 34052 ft | 491 kts | 187° |
| 2026-04-22 07:23 | 57.79868 | 23.88053 | 34044 ft | 489 kts | 187° |
| 2026-04-22 07:24 | 57.73164 | 23.85911 | 34054 ft | 488 kts | 187° |
| 2026-04-22 07:24 | 57.66477 | 23.83756 | 34050 ft | 487 kts | 187° |
| 2026-04-22 07:25 | 57.59801 | 23.81570 | 34053 ft | 486 kts | 187° |
| 2026-04-22 07:25 | 57.53179 | 23.79406 | 34056 ft | 486 kts | 187° |
| 2026-04-22 07:26 | 57.46526 | 23.77241 | 34061 ft | 485 kts | 187° |
| 2026-04-22 07:26 | 57.39878 | 23.75098 | 34073 ft | 484 kts | 187° |
| 2026-04-22 07:27 | 57.33244 | 23.72968 | 34067 ft | 483 kts | 187° |
| 2026-04-22 07:27 | 57.26622 | 23.70846 | 34076 ft | 482 kts | 187° |
| 2026-04-22 07:28 | 57.16714 | 23.67669 | 34075 ft | 481 kts | 187° |
| 2026-04-22 07:28 | 57.10117 | 23.65575 | 34073 ft | 481 kts | 187° |
| 2026-04-22 07:29 | 57.03522 | 23.63498 | 34069 ft | 480 kts | 187° |
| 2026-04-22 07:29 | 56.96936 | 23.61424 | 34069 ft | 480 kts | 187° |
| 2026-04-22 07:30 | 56.90354 | 23.59356 | 34069 ft | 480 kts | 187° |
| 2026-04-22 07:30 | 56.83776 | 23.57297 | 34068 ft | 479 kts | 187° |
| 2026-04-22 07:31 | 56.77205 | 23.55236 | 34066 ft | 479 kts | 187° |
| 2026-04-22 07:31 | 56.70636 | 23.53191 | 34072 ft | 478 kts | 187° |
| 2026-04-22 07:32 | 56.64110 | 23.51176 | 34081 ft | 478 kts | 187° |
| 2026-04-22 07:32 | 56.57552 | 23.49152 | 34081 ft | 477 kts | 187° |
| 2026-04-22 07:33 | 56.51003 | 23.47137 | 34079 ft | 477 kts | 187° |
| 2026-04-22 07:33 | 56.44468 | 23.45134 | 34077 ft | 476 kts | 187° |
| 2026-04-22 07:34 | 56.37940 | 23.43132 | 34083 ft | 476 kts | 186° |
| 2026-04-22 07:34 | 56.31399 | 23.41435 | 34082 ft | 474 kts | 183° |
| 2026-04-22 07:35 | 56.24851 | 23.40314 | 34081 ft | 473 kts | 181° |
| 2026-04-22 07:35 | 56.18295 | 23.39273 | 34087 ft | 472 kts | 182° |
| 2026-04-22 07:36 | 56.11753 | 23.38101 | 34097 ft | 472 kts | 182° |
| 2026-04-22 07:36 | 56.05215 | 23.36855 | 34100 ft | 472 kts | 182° |
| 2026-04-22 07:37 | 55.98724 | 23.35630 | 34102 ft | 472 kts | 182° |
| 2026-04-22 07:37 | 55.92203 | 23.34422 | 34102 ft | 471 kts | 182° |
| 2026-04-22 07:38 | 55.85686 | 23.33227 | 34110 ft | 470 kts | 182° |
| 2026-04-22 07:38 | 55.79170 | 23.32032 | 34112 ft | 470 kts | 182° |
| 2026-04-22 07:39 | 55.72663 | 23.30841 | 34101 ft | 469 kts | 182° |
| 2026-04-22 07:39 | 55.66159 | 23.29663 | 34100 ft | 469 kts | 181° |
| 2026-04-22 07:40 | 55.59671 | 23.28486 | 34098 ft | 468 kts | 181° |
| 2026-04-22 07:40 | 55.53228 | 23.27328 | 34098 ft | 468 kts | 181° |
| 2026-04-22 07:41 | 55.46759 | 23.26160 | 34100 ft | 467 kts | 181° |
| 2026-04-22 07:41 | 55.40294 | 23.24994 | 34101 ft | 467 kts | 181° |
| 2026-04-22 07:42 | 55.33832 | 23.23846 | 34104 ft | 466 kts | 181° |
| 2026-04-22 07:42 | 55.27371 | 23.22701 | 34107 ft | 466 kts | 181° |
| 2026-04-22 07:43 | 55.20916 | 23.21545 | 34109 ft | 466 kts | 181° |
| 2026-04-22 07:43 | 55.14466 | 23.20406 | 34111 ft | 466 kts | 181° |
| 2026-04-22 07:44 | 55.08019 | 23.19267 | 34109 ft | 465 kts | 181° |
| 2026-04-22 07:44 | 55.01576 | 23.18125 | 34114 ft | 465 kts | 180° |
| 2026-04-22 07:45 | 54.95135 | 23.16998 | 34117 ft | 465 kts | 180° |
| 2026-04-22 07:45 | 54.88696 | 23.15877 | 34120 ft | 465 kts | 180° |
| 2026-04-22 07:46 | 54.82266 | 23.14764 | 34121 ft | 464 kts | 180° |
| 2026-04-22 07:46 | 54.75868 | 23.13656 | 34122 ft | 464 kts | 180° |
| 2026-04-22 07:47 | 54.69437 | 23.12526 | 34127 ft | 464 kts | 180° |
| 2026-04-22 07:47 | 54.63012 | 23.11412 | 34126 ft | 464 kts | 180° |
| 2026-04-22 07:48 | 54.56589 | 23.10315 | 34124 ft | 464 kts | 180° |
| 2026-04-22 07:48 | 54.50171 | 23.09226 | 34125 ft | 463 kts | 180° |
| 2026-04-22 07:49 | 54.43754 | 23.08135 | 34127 ft | 464 kts | 180° |
| 2026-04-22 07:49 | 54.37332 | 23.07042 | 34127 ft | 464 kts | 180° |
| 2026-04-22 07:50 | 54.30912 | 23.05941 | 34130 ft | 464 kts | 180° |
| 2026-04-22 07:50 | 54.24496 | 23.04274 | 34124 ft | 468 kts | 185° |
| 2026-04-22 07:51 | 54.18095 | 23.02037 | 34124 ft | 469 kts | 186° |
| 2026-04-22 07:51 | 54.11702 | 22.99805 | 34121 ft | 469 kts | 185° |
| 2026-04-22 07:52 | 54.05296 | 22.97745 | 34117 ft | 468 kts | 185° |
| 2026-04-22 07:52 | 53.98921 | 22.95791 | 34099 ft | 468 kts | 185° |
| 2026-04-22 07:53 | 53.92496 | 22.93800 | 34110 ft | 469 kts | 185° |
| 2026-04-22 07:53 | 53.86070 | 22.91781 | 34106 ft | 470 kts | 185° |
| 2026-04-22 07:54 | 53.79638 | 22.89765 | 34119 ft | 470 kts | 185° |
| 2026-04-22 07:54 | 53.73194 | 22.87758 | 34117 ft | 471 kts | 185° |
| 2026-04-22 07:55 | 53.66740 | 22.85753 | 34118 ft | 472 kts | 185° |
| 2026-04-22 07:55 | 53.60281 | 22.83755 | 34122 ft | 472 kts | 185° |
| 2026-04-22 07:56 | 53.53810 | 22.81759 | 34124 ft | 473 kts | 185° |
| 2026-04-22 07:56 | 53.47338 | 22.79777 | 34126 ft | 473 kts | 185° |
| 2026-04-22 07:57 | 53.40855 | 22.77792 | 34122 ft | 474 kts | 185° |
| 2026-04-22 07:57 | 53.34368 | 22.75797 | 34127 ft | 474 kts | 185° |
| 2026-04-22 07:58 | 53.27875 | 22.73813 | 34128 ft | 474 kts | 185° |
| 2026-04-22 07:58 | 53.21420 | 22.71853 | 34129 ft | 475 kts | 185° |
| 2026-04-22 07:59 | 53.14917 | 22.69895 | 34132 ft | 475 kts | 185° |
| 2026-04-22 07:59 | 53.08402 | 22.67924 | 34134 ft | 475 kts | 186° |
| 2026-04-22 08:00 | 53.01897 | 22.65962 | 34134 ft | 476 kts | 186° |
| 2026-04-22 08:00 | 52.95376 | 22.64008 | 34139 ft | 476 kts | 186° |
| 2026-04-22 08:01 | 52.88859 | 22.62058 | 34134 ft | 476 kts | 186° |
| 2026-04-22 08:01 | 52.82349 | 22.60104 | 34136 ft | 476 kts | 186° |
| 2026-04-22 08:02 | 52.75824 | 22.58164 | 34142 ft | 476 kts | 186° |
| 2026-04-22 08:02 | 52.69303 | 22.56239 | 34142 ft | 476 kts | 186° |
| 2026-04-22 08:03 | 52.62826 | 22.54320 | 34141 ft | 476 kts | 186° |
| 2026-04-22 08:03 | 52.56298 | 22.52617 | 34142 ft | 474 kts | 183° |
| 2026-04-22 08:04 | 52.49753 | 22.51315 | 34239 ft | 473 kts | 182° |
| 2026-04-22 08:04 | 52.46480 | 22.50708 | 34353 ft | 474 kts | 182° |
| 2026-04-22 08:04 | 52.43199 | 22.50077 | 34471 ft | 474 kts | 183° |
| 2026-04-22 08:05 | 52.39924 | 22.49419 | 34590 ft | 474 kts | 183° |
| 2026-04-22 08:05 | 52.36650 | 22.48743 | 34707 ft | 474 kts | 183° |
| 2026-04-22 08:05 | 52.33376 | 22.48053 | 34826 ft | 474 kts | 184° |
| 2026-04-22 08:05 | 52.30102 | 22.47356 | 34944 ft | 474 kts | 184° |
| 2026-04-22 08:06 | 52.26832 | 22.46661 | 35083 ft | 474 kts | 184° |
| 2026-04-22 08:06 | 52.23558 | 22.45973 | 35119 ft | 474 kts | 184° |
| 2026-04-22 08:06 | 52.17013 | 22.44624 | 35111 ft | 474 kts | 184° |
| 2026-04-22 08:07 | 52.10476 | 22.43279 | 35110 ft | 473 kts | 184° |
| 2026-04-22 08:07 | 52.05049 | 22.42162 | 35116 ft | 473 kts | 184° |
| 2026-04-22 08:08 | 51.98517 | 22.40814 | 35114 ft | 473 kts | 184° |
| 2026-04-22 08:08 | 51.91984 | 22.39475 | 35127 ft | 473 kts | 184° |
| 2026-04-22 08:09 | 51.85448 | 22.38140 | 35130 ft | 473 kts | 184° |
| 2026-04-22 08:09 | 51.78910 | 22.36808 | 35136 ft | 473 kts | 184° |
| 2026-04-22 08:10 | 51.72376 | 22.35479 | 35139 ft | 473 kts | 184° |
| 2026-04-22 08:10 | 51.65834 | 22.34160 | 35140 ft | 473 kts | 184° |
| 2026-04-22 08:11 | 51.59301 | 22.32844 | 35148 ft | 473 kts | 184° |
| 2026-04-22 08:11 | 51.52757 | 22.31523 | 35148 ft | 473 kts | 185° |
| 2026-04-22 08:12 | 51.46268 | 22.30221 | 35147 ft | 473 kts | 185° |
| 2026-04-22 08:12 | 51.39736 | 22.28918 | 35156 ft | 473 kts | 185° |
| 2026-04-22 08:13 | 51.33210 | 22.27624 | 35157 ft | 473 kts | 185° |
| 2026-04-22 08:13 | 51.26676 | 22.26327 | 35158 ft | 473 kts | 185° |
| 2026-04-22 08:14 | 51.20146 | 22.25031 | 35158 ft | 472 kts | 185° |
| 2026-04-22 08:14 | 51.13625 | 22.23736 | 35158 ft | 472 kts | 185° |
| 2026-04-22 08:15 | 51.07099 | 22.22447 | 35167 ft | 472 kts | 185° |
| 2026-04-22 08:15 | 51.00573 | 22.21157 | 35169 ft | 472 kts | 185° |
| 2026-04-22 08:16 | 50.94049 | 22.19880 | 35171 ft | 472 kts | 185° |
| 2026-04-22 08:16 | 50.87528 | 22.18605 | 35169 ft | 472 kts | 185° |
| 2026-04-22 08:17 | 50.81048 | 22.17340 | 35171 ft | 472 kts | 185° |
| 2026-04-22 08:17 | 50.74534 | 22.16072 | 35169 ft | 471 kts | 185° |
| 2026-04-22 08:18 | 50.68017 | 22.14815 | 35165 ft | 471 kts | 185° |
| 2026-04-22 08:18 | 50.61505 | 22.13560 | 35163 ft | 471 kts | 185° |
| 2026-04-22 08:19 | 50.54997 | 22.12302 | 35168 ft | 471 kts | 185° |
| 2026-04-22 08:19 | 50.48487 | 22.11053 | 35163 ft | 471 kts | 185° |
| 2026-04-22 08:20 | 50.42024 | 22.09809 | 35164 ft | 471 kts | 185° |
| 2026-04-22 08:20 | 50.35522 | 22.08571 | 35165 ft | 471 kts | 185° |
| 2026-04-22 08:21 | 50.29017 | 22.07329 | 35167 ft | 471 kts | 185° |
| 2026-04-22 08:21 | 50.22516 | 22.06089 | 35170 ft | 471 kts | 186° |
| 2026-04-22 08:22 | 50.16011 | 22.04855 | 35169 ft | 471 kts | 186° |
| 2026-04-22 08:22 | 50.09508 | 22.03625 | 35170 ft | 470 kts | 186° |
| 2026-04-22 08:23 | 50.03001 | 22.02399 | 35168 ft | 470 kts | 186° |
| 2026-04-22 08:23 | 49.96501 | 22.01174 | 35166 ft | 470 kts | 186° |
| 2026-04-22 08:24 | 49.90003 | 21.99962 | 35166 ft | 470 kts | 186° |
| 2026-04-22 08:24 | 49.83546 | 21.98755 | 35161 ft | 470 kts | 186° |
| 2026-04-22 08:25 | 49.77049 | 21.97541 | 35155 ft | 470 kts | 186° |
| 2026-04-22 08:25 | 49.70548 | 21.96331 | 35153 ft | 470 kts | 186° |
| 2026-04-22 08:26 | 49.64043 | 21.95115 | 35155 ft | 470 kts | 186° |
| 2026-04-22 08:26 | 49.57549 | 21.93912 | 35159 ft | 470 kts | 186° |
| 2026-04-22 08:27 | 49.51050 | 21.92711 | 35157 ft | 470 kts | 186° |
| 2026-04-22 08:27 | 49.44546 | 21.91509 | 35156 ft | 470 kts | 186° |
| 2026-04-22 08:28 | 49.38047 | 21.90320 | 35154 ft | 470 kts | 186° |
| 2026-04-22 08:28 | 49.31549 | 21.89134 | 35155 ft | 470 kts | 186° |
| 2026-04-22 08:29 | 49.25052 | 21.87954 | 35156 ft | 470 kts | 186° |
| 2026-04-22 08:29 | 49.18561 | 21.86772 | 35149 ft | 470 kts | 186° |
| 2026-04-22 08:30 | 49.12071 | 21.85586 | 35151 ft | 470 kts | 186° |
| 2026-04-22 08:30 | 49.05583 | 21.84406 | 35151 ft | 470 kts | 187° |
| 2026-04-22 08:31 | 48.99087 | 21.83234 | 35144 ft | 470 kts | 186° |
| 2026-04-22 08:32 | 48.89345 | 21.81768 | 35137 ft | 469 kts | 178° |
| 2026-04-22 08:32 | 48.82881 | 21.82887 | 35137 ft | 468 kts | 171° |
| 2026-04-22 08:33 | 48.76432 | 21.84259 | 35135 ft | 468 kts | 171° |
| 2026-04-22 08:33 | 48.69976 | 21.85620 | 35135 ft | 468 kts | 172° |
| 2026-04-22 08:34 | 48.63515 | 21.86974 | 35135 ft | 469 kts | 172° |
| 2026-04-22 08:34 | 48.57056 | 21.88335 | 35138 ft | 469 kts | 172° |
| 2026-04-22 08:35 | 48.50644 | 21.89687 | 35135 ft | 469 kts | 172° |
| 2026-04-22 08:35 | 48.44182 | 21.91045 | 35133 ft | 468 kts | 172° |
| 2026-04-22 08:36 | 48.37832 | 21.93074 | 35131 ft | 467 kts | 158° |
| 2026-04-22 08:36 | 48.32189 | 21.97780 | 35124 ft | 464 kts | 140° |
| 2026-04-22 08:37 | 48.27268 | 22.04024 | 35122 ft | 463 kts | 139° |
| 2026-04-22 08:37 | 48.22334 | 22.10256 | 35117 ft | 464 kts | 139° |
| 2026-04-22 08:38 | 48.17378 | 22.16466 | 35118 ft | 464 kts | 139° |
| 2026-04-22 08:38 | 48.12458 | 22.22645 | 35119 ft | 464 kts | 139° |
| 2026-04-22 08:39 | 48.07511 | 22.28865 | 35124 ft | 465 kts | 139° |
| 2026-04-22 08:39 | 48.02557 | 22.35067 | 35120 ft | 464 kts | 139° |
| 2026-04-22 08:40 | 47.97591 | 22.41245 | 35121 ft | 465 kts | 139° |
| 2026-04-22 08:40 | 47.92615 | 22.47426 | 35122 ft | 465 kts | 139° |
| 2026-04-22 08:41 | 47.87646 | 22.53589 | 35129 ft | 465 kts | 139° |
| 2026-04-22 08:41 | 47.82674 | 22.59750 | 35129 ft | 465 kts | 140° |
| 2026-04-22 08:42 | 47.77685 | 22.65905 | 35133 ft | 465 kts | 140° |
| 2026-04-22 08:42 | 47.72722 | 22.72008 | 35138 ft | 466 kts | 140° |
| 2026-04-22 08:43 | 47.67721 | 22.78143 | 35143 ft | 466 kts | 140° |
| 2026-04-22 08:43 | 47.62723 | 22.84265 | 35143 ft | 466 kts | 140° |
| 2026-04-22 08:44 | 47.57716 | 22.90382 | 35140 ft | 467 kts | 140° |
| 2026-04-22 08:44 | 47.52699 | 22.96495 | 35134 ft | 467 kts | 140° |
| 2026-04-22 08:45 | 47.47674 | 23.02600 | 35134 ft | 467 kts | 140° |
| 2026-04-22 08:45 | 47.42639 | 23.08695 | 35122 ft | 468 kts | 140° |
| 2026-04-22 08:46 | 47.37604 | 23.14785 | 35119 ft | 468 kts | 140° |
| 2026-04-22 08:46 | 47.32558 | 23.20875 | 35116 ft | 469 kts | 140° |
| 2026-04-22 08:47 | 47.27540 | 23.26905 | 35117 ft | 469 kts | 140° |
| 2026-04-22 08:47 | 47.22481 | 23.32975 | 35117 ft | 469 kts | 141° |
| 2026-04-22 08:48 | 47.17420 | 23.39035 | 35117 ft | 469 kts | 141° |
| 2026-04-22 08:48 | 47.12353 | 23.45083 | 35115 ft | 469 kts | 141° |
| 2026-04-22 08:49 | 47.07273 | 23.51126 | 35112 ft | 469 kts | 141° |
| 2026-04-22 08:49 | 47.02201 | 23.57160 | 35115 ft | 469 kts | 141° |
| 2026-04-22 08:50 | 46.97121 | 23.63183 | 35116 ft | 470 kts | 141° |
| 2026-04-22 08:50 | 46.92073 | 23.69153 | 35119 ft | 470 kts | 141° |
| 2026-04-22 08:51 | 46.86987 | 23.75150 | 35121 ft | 470 kts | 141° |
| 2026-04-22 08:51 | 46.81892 | 23.81138 | 35117 ft | 470 kts | 141° |
| 2026-04-22 08:52 | 46.76788 | 23.87121 | 35116 ft | 470 kts | 141° |
| 2026-04-22 08:52 | 46.71686 | 23.93081 | 35112 ft | 470 kts | 142° |
| 2026-04-22 08:53 | 46.66582 | 23.99044 | 35112 ft | 470 kts | 142° |
| 2026-04-22 08:53 | 46.61474 | 24.04997 | 35108 ft | 470 kts | 142° |
| 2026-04-22 08:54 | 46.56360 | 24.10931 | 35109 ft | 470 kts | 142° |
| 2026-04-22 08:54 | 46.51268 | 24.16807 | 35088 ft | 470 kts | 142° |
| 2026-04-22 08:55 | 46.46148 | 24.22727 | 35084 ft | 470 kts | 142° |
| 2026-04-22 08:55 | 46.41021 | 24.28646 | 35082 ft | 471 kts | 142° |
| 2026-04-22 08:56 | 46.35897 | 24.34542 | 35077 ft | 471 kts | 142° |
| 2026-04-22 08:56 | 46.31622 | 24.39440 | 35078 ft | 471 kts | 142° |
| 2026-04-22 08:57 | 46.26480 | 24.45324 | 35076 ft | 471 kts | 143° |
| 2026-04-22 08:57 | 46.21334 | 24.51198 | 35077 ft | 471 kts | 143° |
| 2026-04-22 08:58 | 46.16184 | 24.57074 | 35073 ft | 472 kts | 143° |
| 2026-04-22 08:58 | 46.11027 | 24.62937 | 35073 ft | 472 kts | 143° |
| 2026-04-22 08:59 | 46.05866 | 24.68790 | 35073 ft | 472 kts | 143° |
| 2026-04-22 08:59 | 46.00696 | 24.74636 | 35077 ft | 473 kts | 143° |
| 2026-04-22 09:00 | 45.95522 | 24.80468 | 35081 ft | 473 kts | 143° |
| 2026-04-22 09:00 | 45.90327 | 24.86301 | 35081 ft | 473 kts | 143° |
| 2026-04-22 09:01 | 45.85168 | 24.92091 | 35085 ft | 474 kts | 143° |
| 2026-04-22 09:01 | 45.79977 | 24.97904 | 35080 ft | 473 kts | 144° |
| 2026-04-22 09:02 | 45.74779 | 25.03708 | 35077 ft | 474 kts | 144° |
| 2026-04-22 09:02 | 45.69572 | 25.09508 | 35079 ft | 474 kts | 144° |
| 2026-04-22 09:03 | 45.64357 | 25.15307 | 35082 ft | 475 kts | 144° |
| 2026-04-22 09:03 | 45.59135 | 25.21095 | 35082 ft | 475 kts | 144° |
| 2026-04-22 09:04 | 45.53916 | 25.26865 | 35079 ft | 475 kts | 144° |
| 2026-04-22 09:04 | 45.48697 | 25.32626 | 35077 ft | 474 kts | 144° |
| 2026-04-22 09:05 | 45.43475 | 25.38385 | 35076 ft | 475 kts | 144° |
| 2026-04-22 09:05 | 45.38242 | 25.44136 | 35083 ft | 475 kts | 144° |
| 2026-04-22 09:06 | 45.33034 | 25.49827 | 35074 ft | 474 kts | 144° |
| 2026-04-22 09:06 | 45.27801 | 25.55541 | 35073 ft | 474 kts | 144° |
| 2026-04-22 09:07 | 45.22567 | 25.61264 | 35072 ft | 475 kts | 145° |
| 2026-04-22 09:07 | 45.17327 | 25.66979 | 35072 ft | 475 kts | 145° |
| 2026-04-22 09:08 | 45.12080 | 25.72663 | 35073 ft | 475 kts | 145° |
| 2026-04-22 09:08 | 45.06824 | 25.78344 | 35073 ft | 475 kts | 145° |
| 2026-04-22 09:09 | 45.01570 | 25.84013 | 35070 ft | 475 kts | 145° |
| 2026-04-22 09:09 | 44.96315 | 25.89676 | 35069 ft | 475 kts | 145° |
| 2026-04-22 09:10 | 44.91053 | 25.95344 | 35068 ft | 475 kts | 145° |
| 2026-04-22 09:10 | 44.85788 | 26.01001 | 35069 ft | 476 kts | 146° |
| 2026-04-22 09:11 | 44.80515 | 26.06630 | 35072 ft | 476 kts | 146° |
| 2026-04-22 09:11 | 44.75235 | 26.12254 | 35075 ft | 476 kts | 146° |
| 2026-04-22 09:12 | 44.69956 | 26.17881 | 35086 ft | 476 kts | 146° |
| 2026-04-22 09:12 | 44.64701 | 26.23462 | 35083 ft | 477 kts | 146° |
| 2026-04-22 09:13 | 44.59375 | 26.29103 | 35085 ft | 477 kts | 146° |
| 2026-04-22 09:13 | 44.54116 | 26.34671 | 35082 ft | 477 kts | 146° |
| 2026-04-22 09:14 | 44.48817 | 26.40258 | 35074 ft | 477 kts | 146° |
| 2026-04-22 09:14 | 44.43509 | 26.45839 | 35074 ft | 477 kts | 146° |
| 2026-04-22 09:15 | 44.38202 | 26.51410 | 35065 ft | 477 kts | 147° |
| 2026-04-22 09:15 | 44.32896 | 26.56982 | 35061 ft | 477 kts | 147° |
| 2026-04-22 09:16 | 44.27586 | 26.62538 | 35057 ft | 477 kts | 147° |
| 2026-04-22 09:16 | 44.22264 | 26.68068 | 35051 ft | 477 kts | 147° |
| 2026-04-22 09:17 | 44.16946 | 26.73601 | 35053 ft | 477 kts | 147° |
| 2026-04-22 09:17 | 44.11621 | 26.79141 | 35047 ft | 477 kts | 147° |
| 2026-04-22 09:18 | 44.06290 | 26.84647 | 35049 ft | 477 kts | 148° |
| 2026-04-22 09:18 | 44.00918 | 26.90080 | 35051 ft | 477 kts | 148° |
| 2026-04-22 09:19 | 43.95528 | 26.95465 | 35052 ft | 477 kts | 149° |
| 2026-04-22 09:19 | 43.90141 | 27.00856 | 35051 ft | 477 kts | 148° |
| 2026-04-22 09:20 | 43.84765 | 27.06252 | 35055 ft | 477 kts | 149° |
| 2026-04-22 09:20 | 43.79416 | 27.11599 | 35050 ft | 477 kts | 149° |
| 2026-04-22 09:21 | 43.74029 | 27.16971 | 35049 ft | 477 kts | 149° |
| 2026-04-22 09:21 | 43.68636 | 27.22328 | 35046 ft | 477 kts | 149° |
| 2026-04-22 09:22 | 43.63242 | 27.27679 | 35048 ft | 478 kts | 149° |
| 2026-04-22 09:22 | 43.57841 | 27.33023 | 35048 ft | 478 kts | 149° |
| 2026-04-22 09:23 | 43.52438 | 27.38368 | 35045 ft | 478 kts | 150° |
| 2026-04-22 09:23 | 43.47027 | 27.43705 | 35046 ft | 479 kts | 150° |
| 2026-04-22 09:24 | 43.41602 | 27.49038 | 35059 ft | 478 kts | 150° |
| 2026-04-22 09:24 | 43.36185 | 27.54344 | 35061 ft | 478 kts | 150° |
| 2026-04-22 09:25 | 43.30765 | 27.59664 | 35062 ft | 478 kts | 150° |
| 2026-04-22 09:25 | 43.25346 | 27.64969 | 35062 ft | 479 kts | 150° |
| 2026-04-22 09:26 | 43.19915 | 27.70261 | 35062 ft | 479 kts | 151° |
| 2026-04-22 09:26 | 43.14510 | 27.75515 | 35061 ft | 480 kts | 151° |
| 2026-04-22 09:27 | 43.09062 | 27.80793 | 35061 ft | 480 kts | 151° |
| 2026-04-22 09:27 | 43.03610 | 27.86076 | 35060 ft | 481 kts | 151° |
| 2026-04-22 09:28 | 42.98150 | 27.91354 | 35060 ft | 480 kts | 151° |
| 2026-04-22 09:28 | 42.92683 | 27.96620 | 35062 ft | 481 kts | 151° |
| 2026-04-22 09:29 | 42.87214 | 28.01877 | 35061 ft | 481 kts | 152° |
| 2026-04-22 09:29 | 42.81748 | 28.07132 | 35059 ft | 481 kts | 152° |
| 2026-04-22 09:30 | 42.76278 | 28.12365 | 35058 ft | 481 kts | 152° |
| 2026-04-22 09:30 | 42.70803 | 28.17600 | 35057 ft | 480 kts | 152° |
| 2026-04-22 09:31 | 42.65364 | 28.22784 | 35056 ft | 481 kts | 152° |
| 2026-04-22 09:31 | 42.59885 | 28.27993 | 35060 ft | 481 kts | 152° |
| 2026-04-22 09:32 | 42.54402 | 28.33201 | 35053 ft | 481 kts | 152° |
| 2026-04-22 09:32 | 42.48921 | 28.38399 | 35053 ft | 481 kts | 153° |
| 2026-04-22 09:33 | 42.43430 | 28.43596 | 35053 ft | 481 kts | 153° |
| 2026-04-22 09:33 | 42.37932 | 28.48769 | 35056 ft | 481 kts | 153° |
| 2026-04-22 09:34 | 42.32432 | 28.53937 | 35063 ft | 481 kts | 153° |
| 2026-04-22 09:34 | 42.26937 | 28.59107 | 35063 ft | 481 kts | 153° |
| 2026-04-22 09:35 | 42.18721 | 28.66804 | 35064 ft | 481 kts | 153° |
| 2026-04-22 09:35 | 42.13208 | 28.71937 | 35061 ft | 480 kts | 155° |
| 2026-04-22 09:36 | 42.10330 | 28.74122 | 35059 ft | 469 kts | 164° |
| 2026-04-22 09:36 | 42.07317 | 28.75660 | 35061 ft | 458 kts | 173° |
| 2026-04-22 09:36 | 42.04242 | 28.76575 | 35056 ft | 447 kts | 182° |
| 2026-04-22 09:36 | 42.01177 | 28.76888 | 35052 ft | 438 kts | 188° |
| 2026-04-22 09:37 | 41.95076 | 28.77101 | 35045 ft | 439 kts | 187° |
| 2026-04-22 09:37 | 41.88955 | 28.77347 | 35046 ft | 440 kts | 187° |
| 2026-04-22 09:38 | 41.82838 | 28.77599 | 35046 ft | 440 kts | 187° |
| 2026-04-22 09:38 | 41.76711 | 28.77837 | 35049 ft | 440 kts | 187° |
| 2026-04-22 09:39 | 41.70590 | 28.78071 | 35045 ft | 440 kts | 187° |
| 2026-04-22 09:39 | 41.64463 | 28.78321 | 35047 ft | 440 kts | 187° |
| 2026-04-22 09:40 | 41.58381 | 28.78557 | 35050 ft | 440 kts | 187° |
| 2026-04-22 09:40 | 41.52250 | 28.78786 | 35046 ft | 441 kts | 187° |
| 2026-04-22 09:41 | 41.46121 | 28.79027 | 35041 ft | 441 kts | 187° |
| 2026-04-22 09:41 | 41.39984 | 28.79272 | 35033 ft | 441 kts | 187° |
| 2026-04-22 09:42 | 41.34883 | 28.79476 | 35034 ft | 441 kts | 187° |
| 2026-04-22 09:42 | 41.28745 | 28.79716 | 35027 ft | 441 kts | 187° |
| 2026-04-22 09:43 | 41.22605 | 28.79950 | 35028 ft | 441 kts | 187° |
| 2026-04-22 09:43 | 41.16458 | 28.80193 | 35029 ft | 441 kts | 186° |
| 2026-04-22 09:44 | 41.10311 | 28.80460 | 35025 ft | 442 kts | 186° |
| 2026-04-22 09:44 | 41.04165 | 28.80727 | 35027 ft | 442 kts | 186° |
| 2026-04-22 09:45 | 40.98013 | 28.81067 | 35028 ft | 447 kts | 180° |
| 2026-04-22 09:45 | 40.91930 | 28.83358 | 35029 ft | 463 kts | 164° |
| 2026-04-22 09:46 | 40.85976 | 28.86638 | 35027 ft | 464 kts | 165° |
| 2026-04-22 09:46 | 40.80011 | 28.89879 | 35021 ft | 463 kts | 165° |
| 2026-04-22 09:47 | 40.74088 | 28.93087 | 35010 ft | 463 kts | 164° |
| 2026-04-22 09:47 | 40.68120 | 28.96322 | 35003 ft | 464 kts | 164° |
| 2026-04-22 09:48 | 40.62152 | 28.99555 | 34998 ft | 464 kts | 164° |
| 2026-04-22 09:48 | 40.56175 | 29.02793 | 34988 ft | 464 kts | 164° |
| 2026-04-22 09:49 | 40.50207 | 29.06017 | 34982 ft | 464 kts | 164° |
| 2026-04-22 09:49 | 40.44231 | 29.09232 | 34975 ft | 463 kts | 164° |
| 2026-04-22 09:50 | 40.38261 | 29.12446 | 34974 ft | 464 kts | 164° |
| 2026-04-22 09:50 | 40.32329 | 29.15631 | 34957 ft | 463 kts | 164° |
| 2026-04-22 09:51 | 40.26357 | 29.18833 | 34949 ft | 463 kts | 164° |
| 2026-04-22 09:51 | 40.20392 | 29.22021 | 34936 ft | 463 kts | 164° |
| 2026-04-22 09:52 | 40.14421 | 29.25212 | 34935 ft | 463 kts | 164° |
| 2026-04-22 09:52 | 40.08468 | 29.28389 | 34937 ft | 462 kts | 164° |
| 2026-04-22 09:53 | 40.02515 | 29.31544 | 34930 ft | 461 kts | 164° |
| 2026-04-22 09:53 | 39.96563 | 29.34693 | 34929 ft | 461 kts | 164° |
| 2026-04-22 09:54 | 39.90652 | 29.37819 | 34930 ft | 461 kts | 164° |
| 2026-04-22 09:54 | 39.84720 | 29.41034 | 34923 ft | 462 kts | 163° |
| 2026-04-22 09:55 | 39.78801 | 29.44328 | 34919 ft | 462 kts | 162° |
| 2026-04-22 09:55 | 39.72885 | 29.47612 | 34928 ft | 462 kts | 163° |
| 2026-04-22 09:56 | 39.66959 | 29.50857 | 34928 ft | 462 kts | 163° |
| 2026-04-22 09:56 | 39.61026 | 29.54051 | 34923 ft | 461 kts | 164° |
| 2026-04-22 09:57 | 39.55042 | 29.57029 | 34918 ft | 460 kts | 165° |
| 2026-04-22 09:57 | 39.49052 | 29.59942 | 34914 ft | 460 kts | 165° |
| 2026-04-22 09:58 | 39.43068 | 29.62883 | 34913 ft | 460 kts | 165° |
| 2026-04-22 09:58 | 39.37093 | 29.65862 | 34914 ft | 460 kts | 164° |
| 2026-04-22 09:59 | 39.31116 | 29.68843 | 34913 ft | 460 kts | 164° |
| 2026-04-22 09:59 | 39.25177 | 29.71791 | 34910 ft | 460 kts | 165° |
| 2026-04-22 10:00 | 39.19195 | 29.74760 | 34920 ft | 461 kts | 164° |
| 2026-04-22 10:00 | 39.13203 | 29.77724 | 34923 ft | 461 kts | 165° |
| 2026-04-22 10:01 | 39.07216 | 29.80668 | 34930 ft | 460 kts | 165° |
| 2026-04-22 10:01 | 39.01229 | 29.83603 | 34940 ft | 460 kts | 165° |
| 2026-04-22 10:02 | 38.95244 | 29.86541 | 34946 ft | 460 kts | 165° |
| 2026-04-22 10:02 | 38.89253 | 29.89470 | 34945 ft | 460 kts | 164° |
| 2026-04-22 10:03 | 38.83257 | 29.92364 | 34946 ft | 460 kts | 165° |
| 2026-04-22 10:03 | 38.77278 | 29.95190 | 34948 ft | 461 kts | 165° |
| 2026-04-22 10:04 | 38.71260 | 29.98024 | 34945 ft | 461 kts | 165° |
| 2026-04-22 10:04 | 38.65241 | 30.00873 | 34950 ft | 461 kts | 165° |
| 2026-04-22 10:05 | 38.59227 | 30.03724 | 34945 ft | 461 kts | 165° |
| 2026-04-22 10:05 | 38.53207 | 30.06579 | 34945 ft | 461 kts | 165° |
| 2026-04-22 10:06 | 38.47184 | 30.09417 | 34948 ft | 461 kts | 165° |
| 2026-04-22 10:06 | 38.41158 | 30.12241 | 34947 ft | 461 kts | 165° |
| 2026-04-22 10:07 | 38.35131 | 30.15067 | 34952 ft | 462 kts | 165° |
| 2026-04-22 10:07 | 38.29094 | 30.17875 | 34957 ft | 462 kts | 165° |
| 2026-04-22 10:08 | 38.23033 | 30.20652 | 34955 ft | 462 kts | 166° |
| 2026-04-22 10:08 | 38.16973 | 30.23417 | 34957 ft | 463 kts | 165° |
| 2026-04-22 10:09 | 38.10951 | 30.26185 | 34966 ft | 463 kts | 165° |
| 2026-04-22 10:09 | 38.04880 | 30.28970 | 34970 ft | 464 kts | 165° |
| 2026-04-22 10:10 | 37.98805 | 30.31752 | 34982 ft | 464 kts | 166° |
| 2026-04-22 10:10 | 37.92718 | 30.34506 | 34985 ft | 464 kts | 166° |
| 2026-04-22 10:11 | 37.86626 | 30.37254 | 34989 ft | 465 kts | 166° |
| 2026-04-22 10:11 | 37.80528 | 30.40012 | 34988 ft | 466 kts | 166° |
| 2026-04-22 10:12 | 37.74420 | 30.42768 | 34988 ft | 466 kts | 166° |
| 2026-04-22 10:12 | 37.68315 | 30.45511 | 34990 ft | 466 kts | 166° |
| 2026-04-22 10:13 | 37.62204 | 30.48264 | 34991 ft | 466 kts | 166° |
| 2026-04-22 10:13 | 37.56093 | 30.51002 | 35001 ft | 466 kts | 166° |
| 2026-04-22 10:14 | 37.49971 | 30.53734 | 35007 ft | 467 kts | 166° |
| 2026-04-22 10:14 | 37.43855 | 30.56468 | 35014 ft | 467 kts | 166° |
| 2026-04-22 10:15 | 37.37729 | 30.59211 | 35019 ft | 467 kts | 166° |
| 2026-04-22 10:15 | 37.31612 | 30.61938 | 35022 ft | 466 kts | 166° |
| 2026-04-22 10:16 | 37.25491 | 30.64664 | 35024 ft | 467 kts | 166° |
| 2026-04-22 10:16 | 37.19406 | 30.67365 | 35027 ft | 467 kts | 166° |
| 2026-04-22 10:17 | 37.13278 | 30.70080 | 35034 ft | 467 kts | 166° |
| 2026-04-22 10:17 | 37.07147 | 30.72787 | 35038 ft | 467 kts | 166° |
| 2026-04-22 10:18 | 37.01016 | 30.75491 | 35040 ft | 467 kts | 166° |
| 2026-04-22 10:18 | 36.94884 | 30.78188 | 35042 ft | 466 kts | 167° |
| 2026-04-22 10:19 | 36.88609 | 30.79578 | 35042 ft | 453 kts | 184° |
| 2026-04-22 10:19 | 36.82305 | 30.79774 | 35040 ft | 453 kts | 184° |
| 2026-04-22 10:20 | 36.76002 | 30.79985 | 35035 ft | 453 kts | 184° |
| 2026-04-22 10:20 | 36.69691 | 30.80209 | 35031 ft | 454 kts | 184° |
| 2026-04-22 10:21 | 36.63374 | 30.80434 | 35030 ft | 454 kts | 184° |
| 2026-04-22 10:21 | 36.57054 | 30.80654 | 35027 ft | 454 kts | 184° |
| 2026-04-22 10:22 | 36.50731 | 30.80875 | 35025 ft | 454 kts | 184° |
| 2026-04-22 10:22 | 36.44446 | 30.81091 | 35018 ft | 455 kts | 184° |
| 2026-04-22 10:23 | 36.38078 | 30.81308 | 35023 ft | 455 kts | 184° |
| 2026-04-22 10:23 | 36.31784 | 30.81509 | 35008 ft | 455 kts | 184° |
| 2026-04-22 10:24 | 36.25447 | 30.81716 | 35011 ft | 456 kts | 184° |
| 2026-04-22 10:24 | 36.19099 | 30.81934 | 35010 ft | 456 kts | 184° |
| 2026-04-22 10:25 | 36.12753 | 30.82149 | 35011 ft | 456 kts | 184° |
| 2026-04-22 10:25 | 36.06399 | 30.82361 | 35016 ft | 457 kts | 184° |
| 2026-04-22 10:26 | 36.00039 | 30.82608 | 35016 ft | 458 kts | 183° |
| 2026-04-22 10:26 | 35.93667 | 30.83013 | 35016 ft | 459 kts | 182° |
| 2026-04-22 10:27 | 35.87298 | 30.83451 | 35023 ft | 459 kts | 182° |
| 2026-04-22 10:27 | 35.80962 | 30.83853 | 35025 ft | 459 kts | 182° |
| 2026-04-22 10:28 | 35.74586 | 30.84227 | 35026 ft | 459 kts | 183° |
| 2026-04-22 10:28 | 35.68221 | 30.85145 | 35022 ft | 469 kts | 167° |
| 2026-04-22 10:29 | 35.65202 | 30.86750 | 35022 ft | 477 kts | 153° |
| 2026-04-22 10:29 | 35.63349 | 30.88325 | 35023 ft | 481 kts | 143° |
| 2026-04-22 10:29 | 35.61009 | 30.91291 | 35018 ft | 486 kts | 128° |
| 2026-04-22 10:29 | 35.59277 | 30.94862 | 35020 ft | 489 kts | 114° |
| 2026-04-22 10:30 | 35.57179 | 31.02763 | 35019 ft | 490 kts | 107° |
| 2026-04-22 10:30 | 35.55155 | 31.10777 | 35020 ft | 492 kts | 108° |
| 2026-04-22 10:31 | 35.53105 | 31.18808 | 35025 ft | 493 kts | 108° |
| 2026-04-22 10:31 | 35.51043 | 31.26844 | 35026 ft | 494 kts | 108° |
| 2026-04-22 10:32 | 35.48972 | 31.34888 | 35035 ft | 494 kts | 108° |
| 2026-04-22 10:32 | 35.46907 | 31.42947 | 35039 ft | 495 kts | 108° |
| 2026-04-22 10:33 | 35.44832 | 31.51006 | 34975 ft | 496 kts | 108° |
| 2026-04-22 10:33 | 35.43794 | 31.55040 | 34726 ft | 496 kts | 108° |
| 2026-04-22 10:33 | 35.42750 | 31.59070 | 34487 ft | 496 kts | 108° |
| 2026-04-22 10:34 | 35.41701 | 31.63093 | 34252 ft | 495 kts | 108° |
| 2026-04-22 10:34 | 35.40666 | 31.67059 | 34019 ft | 495 kts | 108° |
| 2026-04-22 10:34 | 35.39618 | 31.71082 | 33675 ft | 495 kts | 108° |
| 2026-04-22 10:34 | 35.38564 | 31.75140 | 32510 ft | 505 kts | 108° |
| 2026-04-22 10:35 | 35.37493 | 31.79254 | 31554 ft | 508 kts | 108° |
| 2026-04-22 10:35 | 35.36415 | 31.83385 | 30731 ft | 508 kts | 108° |
| 2026-04-22 10:35 | 35.35338 | 31.87495 | 29910 ft | 507 kts | 108° |
| 2026-04-22 10:35 | 35.34264 | 31.91593 | 28614 ft | 504 kts | 108° |
| 2026-04-22 10:36 | 35.33194 | 31.95689 | 27109 ft | 507 kts | 108° |
| 2026-04-22 10:36 | 35.32120 | 31.99788 | 26475 ft | 501 kts | 108° |
| 2026-04-22 10:36 | 35.31054 | 32.03833 | 25751 ft | 498 kts | 108° |
| 2026-04-22 10:36 | 35.29993 | 32.07843 | 25090 ft | 494 kts | 108° |
| 2026-04-22 10:37 | 35.28944 | 32.11831 | 24417 ft | 490 kts | 108° |
| 2026-04-22 10:37 | 35.26885 | 32.19706 | 23021 ft | 481 kts | 108° |
| 2026-04-22 10:37 | 35.25872 | 32.23583 | 22421 ft | 474 kts | 108° |
| 2026-04-22 10:38 | 35.24876 | 32.27398 | 21807 ft | 467 kts | 108° |
| 2026-04-22 10:38 | 35.23893 | 32.31152 | 21226 ft | 461 kts | 108° |
| 2026-04-22 10:38 | 35.22917 | 32.34858 | 20662 ft | 454 kts | 108° |
| 2026-04-22 10:38 | 35.21966 | 32.38460 | 20121 ft | 448 kts | 108° |
| 2026-04-22 10:39 | 35.21013 | 32.42057 | 19599 ft | 442 kts | 108° |
| 2026-04-22 10:39 | 35.20070 | 32.45605 | 19087 ft | 436 kts | 108° |
| 2026-04-22 10:39 | 35.19140 | 32.49101 | 18614 ft | 429 kts | 108° |
| 2026-04-22 10:39 | 35.18225 | 32.52546 | 18103 ft | 423 kts | 108° |
| 2026-04-22 10:40 | 35.17326 | 32.55943 | 17629 ft | 416 kts | 108° |
| 2026-04-22 10:40 | 35.16444 | 32.59281 | 17179 ft | 410 kts | 108° |
| 2026-04-22 10:40 | 35.15572 | 32.62572 | 16719 ft | 405 kts | 108° |
| 2026-04-22 10:40 | 35.14706 | 32.65824 | 16258 ft | 400 kts | 108° |
| 2026-04-22 10:41 | 35.13846 | 32.69043 | 15795 ft | 396 kts | 108° |
| 2026-04-22 10:41 | 35.12995 | 32.72232 | 15318 ft | 393 kts | 108° |
| 2026-04-22 10:41 | 35.12152 | 32.75395 | 14845 ft | 390 kts | 108° |
| 2026-04-22 10:41 | 35.11313 | 32.78539 | 14339 ft | 389 kts | 108° |
| 2026-04-22 10:42 | 35.10475 | 32.81670 | 13836 ft | 388 kts | 108° |
| 2026-04-22 10:42 | 35.09638 | 32.84799 | 13287 ft | 386 kts | 108° |
| 2026-04-22 10:42 | 35.08802 | 32.87908 | 12757 ft | 384 kts | 108° |
| 2026-04-22 10:42 | 35.07971 | 32.90993 | 12233 ft | 382 kts | 108° |
| 2026-04-22 10:43 | 35.07142 | 32.94059 | 11705 ft | 379 kts | 108° |
| 2026-04-22 10:43 | 35.06295 | 32.97101 | 11170 ft | 378 kts | 109° |
| 2026-04-22 10:43 | 35.05434 | 33.00105 | 10837 ft | 369 kts | 109° |
| 2026-04-22 10:43 | 35.04591 | 33.03003 | 10710 ft | 356 kts | 109° |
| 2026-04-22 10:44 | 35.03775 | 33.05795 | 10588 ft | 343 kts | 109° |
| 2026-04-22 10:44 | 35.02990 | 33.08492 | 10473 ft | 331 kts | 109° |
| 2026-04-22 10:44 | 35.02235 | 33.11101 | 10341 ft | 321 kts | 109° |
| 2026-04-22 10:44 | 35.01507 | 33.13625 | 10202 ft | 311 kts | 109° |
| 2026-04-22 10:45 | 35.00797 | 33.16089 | 9994 ft | 305 kts | 109° |
| 2026-04-22 10:45 | 35.00093 | 33.18531 | 9686 ft | 308 kts | 109° |
| 2026-04-22 10:45 | 34.99383 | 33.20993 | 9324 ft | 305 kts | 109° |
| 2026-04-22 10:45 | 34.98687 | 33.23390 | 8964 ft | 303 kts | 109° |
| 2026-04-22 10:46 | 34.97989 | 33.25806 | 8580 ft | 301 kts | 109° |
| 2026-04-22 10:46 | 34.97296 | 33.28205 | 8242 ft | 299 kts | 109° |
| 2026-04-22 10:46 | 34.96611 | 33.30585 | 7885 ft | 296 kts | 107° |
| 2026-04-22 10:46 | 34.96225 | 33.33036 | 7521 ft | 294 kts | 92° |
| 2026-04-22 10:47 | 34.96226 | 33.35514 | 7142 ft | 292 kts | 88° |
| 2026-04-22 10:47 | 34.96246 | 33.37991 | 6596 ft | 286 kts | 89° |
| 2026-04-22 10:47 | 34.96260 | 33.40305 | 6468 ft | 261 kts | 89° |
| 2026-04-22 10:47 | 34.96272 | 33.42461 | 6231 ft | 248 kts | 89° |
| 2026-04-22 10:48 | 34.96287 | 33.44515 | 5913 ft | 238 kts | 89° |
| 2026-04-22 10:48 | 34.96345 | 33.46515 | 5488 ft | 235 kts | 85° |
| 2026-04-22 10:48 | 34.96447 | 33.48499 | 5058 ft | 233 kts | 85° |
| 2026-04-22 10:48 | 34.96560 | 33.50462 | 4642 ft | 232 kts | 85° |
| 2026-04-22 10:49 | 34.96672 | 33.52423 | 4295 ft | 231 kts | 85° |
| 2026-04-22 10:49 | 34.96778 | 33.54357 | 4055 ft | 222 kts | 85° |
| 2026-04-22 10:49 | 34.96871 | 33.56150 | 3900 ft | 204 kts | 85° |
| 2026-04-22 10:49 | 34.96959 | 33.57853 | 3570 ft | 199 kts | 86° |
| 2026-04-22 10:50 | 34.97047 | 33.59529 | 3523 ft | 200 kts | 86° |
| 2026-04-22 10:50 | 34.97170 | 33.61221 | 3316 ft | 200 kts | 83° |
| 2026-04-22 10:50 | 34.97330 | 33.62897 | 3069 ft | 199 kts | 83° |
| 2026-04-22 10:50 | 34.97496 | 33.64566 | 2819 ft | 198 kts | 83° |
| 2026-04-22 10:51 | 34.97570 | 33.66232 | 2550 ft | 196 kts | 98° |
| 2026-04-22 10:51 | 34.97100 | 33.67740 | 2301 ft | 192 kts | 127° |
| 2026-04-22 10:51 | 34.96205 | 33.68888 | 2064 ft | 183 kts | 138° |
| 2026-04-22 10:51 | 34.95310 | 33.69950 | 1774 ft | 177 kts | 139° |
| 2026-04-22 10:52 | 34.94339 | 33.70803 | 1496 ft | 169 kts | 162° |
| 2026-04-22 10:52 | 34.93225 | 33.70838 | 1286 ft | 158 kts | 202° |
| 2026-04-22 10:52 | 34.92434 | 33.69984 | 1091 ft | 153 kts | 239° |
| 2026-04-22 10:52 | 34.92010 | 33.68814 | 1042 ft | 153 kts | 245° |
| 2026-04-22 10:53 | 34.91570 | 33.67646 | 917 ft | 148 kts | 233° |
| 2026-04-22 10:53 | 34.90899 | 33.66701 | 856 ft | 143 kts | 224° |
| 2026-04-22 10:53 | 34.90201 | 33.65852 | 636 ft | 141 kts | 223° |
| 2026-04-22 10:53 | 34.89504 | 33.65009 | 472 ft | 140 kts | 222° |
| 2026-04-22 10:54 | 34.88829 | 33.64176 | 237 ft | 137 kts | 220° |
| 2026-04-22 10:54 | 34.88156 | 33.63353 | 49 ft | 137 kts | 221° |
| 2026-04-22 10:54 | 34.87536 | 33.62596 | 21 ft | 102 kts | 225° |
| 2026-04-22 10:54 | 34.87169 | 33.62143 | 22 ft | 50 kts | 225° |
| 2026-04-22 10:55 | 34.87000 | 33.61893 | 22 ft | 32 kts | 245° |
| 2026-04-22 10:55 | 34.86939 | 33.61662 | 21 ft | 20 kts | 255° |
| 2026-04-22 10:55 | 34.86909 | 33.61530 | 21 ft | 10 kts | 255° |
| 2026-04-22 10:55 | 34.86889 | 33.61446 | 22 ft | 10 kts | 245° |
| 2026-04-22 10:56 | 34.86880 | 33.61380 | 20 ft | 7 kts | 304° |
| 2026-04-22 10:56 | 34.86901 | 33.61352 | 21 ft | 1 kts | 314° |
| 2026-04-22 10:56 | 34.86914 | 33.61337 | 20 ft | 7 kts | 315° |
| 2026-04-22 10:56 | 34.86962 | 33.61279 | 20 ft | 10 kts | 315° |
| 2026-04-22 10:57 | 34.87010 | 33.61223 | 20 ft | 9 kts | 316° |
| 2026-04-22 10:57 | 34.87052 | 33.61172 | 20 ft | 8 kts | 315° |
| 2026-04-22 10:57 | 34.87090 | 33.61126 | 20 ft | 7 kts | 315° |
| 2026-04-22 10:57 | 34.87119 | 33.61088 | 21 ft | 4 kts | 302° |
| 2026-04-22 10:58 | 34.87112 | 33.61063 | 20 ft | 6 kts | 232° |
| 2026-04-22 10:58 | 34.87076 | 33.61018 | 22 ft | 6 kts | 226° |
| 2026-04-22 10:58 | 34.87073 | 33.61014 | 21 ft | 0 kts | 226° |